Rockwells Mills, New York
Current Conditions -  °F | °C
As of 2:53 PM on Monday 24 Nov 2014 (Local Time) from KBGM Reporting Station
Scattered Clouds Scattered Clouds  
Wind Chill: 65°   Ceiling: Unl
Heat Index: 65°   Visibility: 10mi
Dew Point: 50°   Wind: 16mph
Humidity: 58%   Direction: 190°S
Pressure: 29.43"   Gusts: 26mph
Location:  42.5358°N, 75.3475°W
Report Text: KBGM 241953Z 19014G23KT 10SM FEW046 SCT085 18/10 A2943 RMK AO2 PK WND 19035/1914 SLP964 T01830100
Loading
Personal Weather Stations






























Interactive Weather Map New forecast layout! Learn more

10-Day Weather Forecast

Advertisements
Track Severe Weather on mobile